Time;durP1;ratioP1;P1;durP2;ratioP2;P2;SDS_P1;SDS_P2;PMS_P1;PMS_P2;Temp;Humidity;BMP_temperature;BMP_pressure;BME280_temperature;BME280_humidity;BME280_pressure;Samples;Min_cycle;Max_cycle;Signal;HPM_P1;HPM_P2
2023/07/30 00:00:51;;;;;;;7.43;5.47;;;15.70;99.90;;;;;;5036043;28;20480;-78
2023/07/30 00:03:18;;;;;;;4.77;4.27;;;15.70;99.80;;;;;;5035533;28;20449;-77
2023/07/30 00:05:55;;;;;;;5.77;5.00;;;15.60;99.80;;;;;;5036259;28;20416;-78
2023/07/30 00:08:23;;;;;;;7.20;4.57;;;15.50;99.70;;;;;;5036957;28;20772;-78
2023/07/30 00:10:50;;;;;;;7.03;5.43;;;15.60;99.90;;;;;;5035341;28;20470;-79
2023/07/30 00:13:17;;;;;;;5.67;5.03;;;15.60;99.90;;;;;;5034342;28;20793;-80
2023/07/30 00:15:48;;;;;;;5.80;4.70;;;15.60;99.90;;;;;;5035713;28;21045;-78
2023/07/30 00:18:15;;;;;;;9.50;5.17;;;15.50;99.90;;;;;;5018151;28;20456;-79
2023/07/30 00:20:43;;;;;;;5.33;4.07;;;15.50;99.90;;;;;;5042112;28;20450;-79
2023/07/30 00:23:10;;;;;;;5.23;4.73;;;15.50;99.90;;;;;;5038870;28;20515;-77
2023/07/30 00:25:37;;;;;;;6.70;4.60;;;15.50;99.90;;;;;;5039464;28;20498;-78
2023/07/30 00:28:04;;;;;;;7.27;4.73;;;15.50;99.90;;;;;;5023329;28;20449;-78
2023/07/30 00:30:31;;;;;;;5.13;4.73;;;15.40;99.90;;;;;;5035351;28;20445;-78
2023/07/30 00:33:00;;;;;;;5.50;4.97;;;15.40;99.90;;;;;;5040880;28;20569;-80
2023/07/30 00:35:27;;;;;;;6.47;5.17;;;15.40;99.90;;;;;;5035402;28;20954;-79
2023/07/30 00:37:54;;;;;;;7.70;5.33;;;15.40;99.90;;;;;;5018226;28;20868;-77
2023/07/30 00:40:21;;;;;;;5.73;5.23;;;15.40;99.90;;;;;;5035125;28;20509;-77
2023/07/30 00:42:48;;;;;;;9.60;5.50;;;15.40;99.80;;;;;;5034621;28;20488;-78
2023/07/30 00:45:15;;;;;;;6.73;6.00;;;15.40;99.60;;;;;;5035541;28;20522;-77
2023/07/30 00:47:44;;;;;;;4.70;4.30;;;15.30;99.80;;;;;;5035723;28;20476;-78
2023/07/30 00:50:14;;;;;;;4.87;4.30;;;15.30;99.70;;;;;;5033975;28;20450;-79
2023/07/30 00:52:42;;;;;;;6.10;4.80;;;15.40;99.50;;;;;;5040845;28;20454;-77
2023/07/30 00:55:10;;;;;;;8.20;5.57;;;15.30;99.70;;;;;;5037981;28;20446;-76
2023/07/30 00:57:37;;;;;;;5.20;4.60;;;15.30;99.70;;;;;;5021571;28;20548;-79
2023/07/30 01:00:08;;;;;;;5.93;4.63;;;15.20;99.80;;;;;;5025257;28;20516;-79
2023/07/30 01:02:36;;;;;;;6.20;4.80;;;15.10;99.90;;;;;;5021705;28;20495;-77
2023/07/30 01:05:04;;;;;;;5.70;5.13;;;15.10;99.90;;;;;;5038892;28;20496;-79
2023/07/30 01:07:33;;;;;;;7.40;5.10;;;15.10;99.90;;;;;;5022239;28;20473;-78
2023/07/30 01:10:01;;;;;;;7.00;4.63;;;15.10;99.90;;;;;;5049176;28;20442;-77
2023/07/30 01:12:30;;;;;;;10.60;4.80;;;15.10;99.90;;;;;;5053028;28;20447;-77
2023/07/30 01:14:58;;;;;;;5.13;4.73;;;14.90;99.90;;;;;;5040905;28;20416;-77
2023/07/30 01:17:25;;;;;;;8.80;5.60;;;15.00;99.90;;;;;;5039891;28;20847;-78
2023/07/30 01:19:54;;;;;;;6.33;5.50;;;15.00;99.90;;;;;;5038544;28;20452;-79
2023/07/30 01:22:23;;;;;;;6.37;5.60;;;15.00;99.90;;;;;;5020269;28;20600;-81
2023/07/30 01:24:51;;;;;;;5.17;4.67;;;14.90;99.90;;;;;;5037637;28;20505;-78
2023/07/30 01:27:27;;;;;;;6.43;4.87;;;15.00;99.90;;;;;;5038870;28;20513;-77
2023/07/30 01:30:13;;;;;;;10.17;5.53;;;14.90;99.90;;;;;;5037884;28;20449;-78
2023/07/30 01:32:41;;;;;;;7.50;5.27;;;14.80;99.90;;;;;;5037858;28;20447;-78
2023/07/30 01:35:09;;;;;;;6.60;5.60;;;14.90;99.90;;;;;;5014358;28;20455;-78
2023/07/30 01:37:38;;;;;;;8.67;5.43;;;14.80;99.90;;;;;;5037785;28;20508;-78
2023/07/30 01:40:06;;;;;;;7.40;6.60;;;14.80;99.90;;;;;;5037715;28;20416;-78
2023/07/30 01:42:34;;;;;;;6.10;4.90;;;14.80;99.90;;;;;;5027763;28;20448;-77
2023/07/30 01:45:00;;;;;;;7.10;5.40;;;14.80;99.90;;;;;;5038169;28;21043;-80
2023/07/30 01:47:28;;;;;;;7.87;5.60;;;14.80;99.90;;;;;;5037305;28;20503;-76
2023/07/30 01:49:54;;;;;;;9.27;5.60;;;14.70;99.90;;;;;;5040716;28;20632;-78
2023/07/30 01:52:21;;;;;;;11.30;6.03;;;14.90;99.90;;;;;;5036502;28;20539;-78
2023/07/30 01:54:48;;;;;;;7.23;6.50;;;14.80;99.90;;;;;;5008802;28;20501;-76
2023/07/30 01:57:15;;;;;;;8.33;5.70;;;14.80;99.90;;;;;;5032961;28;21108;-78
2023/07/30 01:59:43;;;;;;;8.93;5.87;;;14.80;99.90;;;;;;5035404;28;20456;-75
2023/07/30 02:02:10;;;;;;;13.20;5.13;;;14.80;99.90;;;;;;5019513;28;20517;-77
2023/07/30 02:04:37;;;;;;;8.40;5.97;;;14.80;99.90;;;;;;5038137;28;20444;-78
2023/07/30 02:07:04;;;;;;;9.40;6.40;;;14.70;99.90;;;;;;5037581;28;20774;-78
2023/07/30 02:09:31;;;;;;;12.23;6.20;;;14.80;99.90;;;;;;5037249;28;20654;-77
2023/07/30 02:11:58;;;;;;;12.60;5.70;;;14.70;99.90;;;;;;5045463;28;20801;-79
2023/07/30 02:14:25;;;;;;;9.67;6.20;;;14.70;99.90;;;;;;5041740;28;20640;-79
2023/07/30 02:16:52;;;;;;;10.03;7.60;;;14.70;99.90;;;;;;5037434;28;21123;-77
2023/07/30 02:19:19;;;;;;;7.23;6.10;;;14.70;99.90;;;;;;5038804;28;20473;-77
2023/07/30 02:21:47;;;;;;;8.27;4.97;;;14.70;99.90;;;;;;5043241;28;20521;-79
2023/07/30 02:24:13;;;;;;;7.73;6.07;;;14.80;99.90;;;;;;5023090;28;20473;-77
2023/07/30 02:26:41;;;;;;;7.83;5.63;;;14.60;99.90;;;;;;5041192;28;20456;-78
2023/07/30 02:29:08;;;;;;;6.03;5.07;;;14.70;99.90;;;;;;5023888;28;20768;-77
2023/07/30 02:31:35;;;;;;;11.93;5.90;;;14.70;99.90;;;;;;5039409;28;20517;-76
2023/07/30 02:34:02;;;;;;;8.03;6.20;;;14.70;99.90;;;;;;5036950;28;20481;-76
2023/07/30 02:36:29;;;;;;;10.93;6.07;;;14.60;99.90;;;;;;5036036;28;20489;-78
2023/07/30 02:38:56;;;;;;;6.30;5.70;;;14.60;99.90;;;;;;5018522;28;20446;-77
2023/07/30 02:41:23;;;;;;;11.93;5.90;;;14.60;99.90;;;;;;5035560;28;20829;-78
2023/07/30 02:43:50;;;;;;;12.80;7.30;;;14.60;99.90;;;;;;5035441;28;20489;-77
2023/07/30 02:46:17;;;;;;;7.80;5.30;;;14.60;99.90;;;;;;5036176;28;20454;-79
2023/07/30 02:48:46;;;;;;;10.83;6.63;;;14.60;99.90;;;;;;5035798;28;20805;-78
2023/07/30 02:51:14;;;;;;;6.80;6.00;;;14.60;99.90;;;;;;5018001;28;20454;-76
2023/07/30 02:53:43;;;;;;;13.77;6.43;;;14.60;99.90;;;;;;5035603;28;20469;-78
2023/07/30 02:56:10;;;;;;;7.80;6.00;;;14.60;99.90;;;;;;5035607;28;20445;-76
2023/07/30 02:58:37;;;;;;;6.30;5.27;;;14.70;99.90;;;;;;5035056;28;20448;-77
2023/07/30 03:01:08;;;;;;;8.57;6.40;;;14.50;99.90;;;;;;5029095;28;20498;-77
2023/07/30 03:03:35;;;;;;;7.60;6.30;;;14.50;99.90;;;;;;5034751;28;20434;-79
2023/07/30 03:06:03;;;;;;;9.00;6.33;;;14.50;99.90;;;;;;5035743;28;20438;-77
2023/07/30 03:08:30;;;;;;;6.63;5.80;;;14.60;99.90;;;;;;5034796;28;20517;-77
2023/07/30 03:10:59;;;;;;;10.47;6.13;;;14.60;99.90;;;;;;5029467;28;20774;-75
2023/07/30 03:13:26;;;;;;;12.60;7.20;;;14.60;99.90;;;;;;5035445;28;20593;-78
2023/07/30 03:15:53;;;;;;;7.60;6.07;;;14.60;99.90;;;;;;5035596;28;20649;-77
2023/07/30 03:18:20;;;;;;;8.70;6.43;;;14.60;99.90;;;;;;5035053;28;20481;-77
2023/07/30 03:20:47;;;;;;;16.83;5.57;;;14.60;99.90;;;;;;5034983;28;20442;-77
2023/07/30 03:23:14;;;;;;;9.77;6.50;;;14.60;99.90;;;;;;5034415;28;20510;-78
2023/07/30 03:25:41;;;;;;;5.90;4.93;;;14.60;99.90;;;;;;5026993;28;20453;-76
2023/07/30 03:28:08;;;;;;;19.43;6.73;;;14.50;99.90;;;;;;5017437;28;20466;-76
2023/07/30 03:30:35;;;;;;;6.30;5.70;;;14.80;99.90;;;;;;5045008;28;20445;-76
2023/07/30 03:33:02;;;;;;;12.93;6.37;;;14.70;99.90;;;;;;5043415;28;20496;-78
2023/07/30 03:35:30;;;;;;;13.03;6.70;;;14.70;99.90;;;;;;5037814;28;20609;-77
2023/07/30 03:37:57;;;;;;;12.30;6.43;;;14.70;99.90;;;;;;5037398;28;20490;-77
2023/07/30 03:40:25;;;;;;;12.63;6.70;;;14.70;99.90;;;;;;5035314;28;20471;-77
2023/07/30 03:42:52;;;;;;;10.27;6.07;;;14.80;99.90;;;;;;5035645;28;20477;-77
2023/07/30 03:45:19;;;;;;;14.80;5.90;;;14.90;99.90;;;;;;5034514;28;20663;-76
2023/07/30 03:47:46;;;;;;;10.27;6.17;;;14.90;99.90;;;;;;5034920;28;20741;-78
2023/07/30 03:50:13;;;;;;;17.77;5.80;;;15.00;99.90;;;;;;5017619;28;20413;-77
2023/07/30 03:52:40;;;;;;;12.03;6.33;;;15.10;99.90;;;;;;5034531;28;20762;-78
2023/07/30 03:55:07;;;;;;;5.50;5.00;;;15.20;99.90;;;;;;5034881;28;20438;-77
2023/07/30 03:57:34;;;;;;;7.23;5.93;;;15.30;99.90;;;;;;5034637;28;20536;-79
2023/07/30 04:00:03;;;;;;;10.53;5.60;;;15.40;99.90;;;;;;5034790;28;20461;-77
2023/07/30 04:02:30;;;;;;;9.07;5.70;;;15.50;99.90;;;;;;5034249;28;20476;-77
2023/07/30 04:04:57;;;;;;;7.40;5.30;;;15.60;99.90;;;;;;5035568;28;20446;-77
2023/07/30 04:07:24;;;;;;;6.57;5.10;;;15.70;99.60;;;;;;5017564;28;20498;-77
2023/07/30 04:09:51;;;;;;;9.80;5.17;;;15.70;99.30;;;;;;5033572;28;20456;-79
2023/07/30 04:12:19;;;;;;;9.87;4.80;;;15.70;99.20;;;;;;5034592;28;20463;-78
2023/07/30 04:14:46;;;;;;;6.73;4.43;;;15.70;99.10;;;;;;5027262;28;20430;-78
2023/07/30 04:17:13;;;;;;;7.10;4.07;;;15.60;99.20;;;;;;5035097;28;20477;-78
2023/07/30 04:19:40;;;;;;;8.73;4.60;;;15.70;99.10;;;;;;5034562;28;20470;-76
2023/07/30 04:22:08;;;;;;;17.20;6.40;;;15.70;99.10;;;;;;5034896;28;20540;-80
2023/07/30 04:24:36;;;;;;;6.50;5.20;;;15.70;99.30;;;;;;5038572;28;20804;-78
2023/07/30 04:27:03;;;;;;;9.07;4.43;;;15.70;98.80;;;;;;5039374;28;20773;-78
2023/07/30 04:29:29;;;;;;;10.20;4.33;;;15.70;98.80;;;;;;5039436;28;20437;-78
2023/07/30 04:31:56;;;;;;;10.23;4.70;;;15.60;98.70;;;;;;5043967;28;20430;-78
2023/07/30 04:34:24;;;;;;;13.93;4.57;;;15.70;98.80;;;;;;5040932;28;20856;-77
2023/07/30 04:36:51;;;;;;;7.50;4.70;;;15.80;98.50;;;;;;5040314;28;20511;-78
2023/07/30 04:39:18;;;;;;;9.37;4.70;;;16.10;98.50;;;;;;5045227;28;20460;-78
2023/07/30 04:41:45;;;;;;;8.43;4.83;;;16.10;98.50;;;;;;5043288;28;20518;-80
2023/07/30 04:44:12;;;;;;;8.43;4.20;;;16.30;97.90;;;;;;5040090;28;20512;-80
2023/07/30 04:46:38;;;;;;;9.07;5.47;;;16.40;98.00;;;;;;5035574;28;20468;-76
2023/07/30 04:49:06;;;;;;;12.47;5.67;;;16.50;97.20;;;;;;5019696;28;20481;-79
2023/07/30 04:51:32;;;;;;;7.07;4.43;;;16.60;97.30;;;;;;5037352;28;20445;-78
2023/07/30 04:54:00;;;;;;;7.33;4.00;;;16.80;96.80;;;;;;5049011;28;20485;-80
2023/07/30 04:56:27;;;;;;;7.80;4.70;;;16.90;96.90;;;;;;5043653;28;20444;-82
2023/07/30 04:58:54;;;;;;;10.50;3.93;;;17.00;96.60;;;;;;5047024;28;20572;-79
2023/07/30 05:01:25;;;;;;;6.00;4.27;;;17.00;96.00;;;;;;5038832;28;20521;-81
2023/07/30 05:03:52;;;;;;;8.53;3.97;;;17.20;96.10;;;;;;5042439;28;20442;-80
2023/07/30 05:06:19;;;;;;;5.27;3.60;;;17.30;95.80;;;;;;5025624;28;20607;-79
2023/07/30 05:08:45;;;;;;;8.40;4.97;;;17.30;95.60;;;;;;5042622;28;20479;-78
2023/07/30 05:11:13;;;;;;;7.70;3.73;;;17.40;95.90;;;;;;5037079;28;20515;-82
2023/07/30 05:13:39;;;;;;;6.40;3.63;;;17.80;95.10;;;;;;5042301;28;20469;-80
2023/07/30 05:16:06;;;;;;;8.80;4.43;;;17.90;94.10;;;;;;5042434;28;20483;-82
2023/07/30 05:18:34;;;;;;;6.57;3.63;;;17.90;94.60;;;;;;5033063;28;20477;-79
2023/07/30 05:21:01;;;;;;;6.00;3.70;;;18.00;94.60;;;;;;5021668;28;20525;-81
2023/07/30 05:23:28;;;;;;;7.30;3.17;;;18.10;94.50;;;;;;5041858;28;20437;-79
2023/07/30 05:25:55;;;;;;;13.73;3.63;;;18.10;94.40;;;;;;5038405;28;20469;-83
2023/07/30 05:28:22;;;;;;;5.20;3.57;;;18.40;94.10;;;;;;5038817;28;20500;-80
2023/07/30 05:30:50;;;;;;;5.70;3.33;;;18.50;93.60;;;;;;5041299;28;20609;-79
2023/07/30 05:33:16;;;;;;;7.47;3.63;;;18.90;93.30;;;;;;5048303;28;20504;-80
2023/07/30 05:35:45;;;;;;;9.47;4.00;;;18.90;92.80;;;;;;5041861;28;20442;-81
2023/07/30 05:38:12;;;;;;;8.27;3.20;;;19.00;92.70;;;;;;5041458;28;20443;-80
2023/07/30 05:40:40;;;;;;;5.87;3.50;;;19.00;92.50;;;;;;5030461;28;20549;-78
2023/07/30 05:43:07;;;;;;;8.47;3.87;;;19.20;92.10;;;;;;5031176;28;20829;-80
2023/07/30 05:45:35;;;;;;;6.57;3.20;;;19.30;91.70;;;;;;5039852;28;20452;-81
2023/07/30 05:48:02;;;;;;;9.20;3.80;;;19.50;91.60;;;;;;5042940;28;20440;-79
2023/07/30 05:50:29;;;;;;;5.63;3.13;;;19.60;91.40;;;;;;5040165;28;20500;-82
2023/07/30 05:52:56;;;;;;;7.10;3.57;;;19.70;90.80;;;;;;5039507;28;20428;-80
2023/07/30 05:55:23;;;;;;;5.97;3.07;;;19.90;90.20;;;;;;5038070;28;20469;-80
2023/07/30 05:57:50;;;;;;;6.33;3.10;;;20.10;90.00;;;;;;5035876;28;20471;-82
2023/07/30 06:00:17;;;;;;;7.60;3.50;;;20.30;90.00;;;;;;5039100;28;20426;-80
2023/07/30 06:02:44;;;;;;;7.70;3.10;;;20.40;90.00;;;;;;5049719;28;20833;-79
2023/07/30 06:05:11;;;;;;;4.20;3.13;;;20.40;89.00;;;;;;5039337;28;20448;-79
2023/07/30 06:07:39;;;;;;;6.70;4.30;;;20.60;88.40;;;;;;5035645;28;20495;-79
2023/07/30 06:10:06;;;;;;;7.57;4.67;;;20.70;86.30;;;;;;5037157;28;20511;-80
2023/07/30 06:12:33;;;;;;;4.40;3.60;;;21.00;86.10;;;;;;5036957;28;20416;-79
2023/07/30 06:15:00;;;;;;;4.23;3.43;;;21.20;84.80;;;;;;5037102;28;20541;-79
2023/07/30 06:17:27;;;;;;;3.70;2.77;;;21.30;85.30;;;;;;5036826;28;20515;-78
2023/07/30 06:19:55;;;;;;;7.00;3.30;;;21.50;84.40;;;;;;5036145;28;20512;-80
2023/07/30 06:22:22;;;;;;;8.43;3.50;;;21.50;83.00;;;;;;5036280;28;20442;-78
2023/07/30 06:24:49;;;;;;;6.43;3.20;;;21.90;81.70;;;;;;5017727;28;20605;-78
2023/07/30 06:27:16;;;;;;;4.50;3.30;;;22.00;82.20;;;;;;5036790;28;20420;-78
2023/07/30 06:29:43;;;;;;;4.43;2.90;;;22.20;80.80;;;;;;5019492;28;20624;-78
2023/07/30 06:32:10;;;;;;;6.80;3.73;;;22.40;80.30;;;;;;5036647;28;20481;-77
2023/07/30 06:34:37;;;;;;;6.47;3.40;;;22.60;78.10;;;;;;5036084;28;20442;-79
2023/07/30 06:37:04;;;;;;;4.30;3.10;;;22.70;77.70;;;;;;5036173;28;20545;-74
2023/07/30 06:39:31;;;;;;;4.50;3.37;;;22.90;76.80;;;;;;5019303;28;20861;-76
2023/07/30 06:41:58;;;;;;;4.90;2.90;;;23.00;75.00;;;;;;5036402;28;20493;-78
2023/07/30 06:44:25;;;;;;;3.90;3.07;;;23.10;75.20;;;;;;5023711;28;20465;-77
2023/07/30 06:46:52;;;;;;;5.80;3.13;;;23.70;72.80;;;;;;5038782;28;20481;-76
2023/07/30 06:49:19;;;;;;;4.53;3.27;;;23.90;71.30;;;;;;5036923;28;20420;-77
2023/07/30 06:51:46;;;;;;;3.73;2.80;;;24.30;69.40;;;;;;5035911;28;20537;-78
2023/07/30 06:54:14;;;;;;;6.50;3.13;;;24.70;70.70;;;;;;5036322;28;20457;-77
2023/07/30 06:56:40;;;;;;;4.13;3.10;;;25.10;65.90;;;;;;5035256;28;20521;-76
2023/07/30 06:59:07;;;;;;;6.23;3.23;;;25.10;65.10;;;;;;5031371;28;20569;-77
2023/07/30 07:01:34;;;;;;;4.33;3.90;;;25.20;66.30;;;;;;5032162;28;20537;-77
2023/07/30 07:04:02;;;;;;;6.77;3.40;;;25.30;65.50;;;;;;5035186;28;20453;-76
2023/07/30 07:06:29;;;;;;;6.07;3.47;;;25.60;63.90;;;;;;5036425;28;20446;-77
2023/07/30 07:08:56;;;;;;;5.27;2.80;;;25.50;64.30;;;;;;5033616;28;20516;-78
2023/07/30 07:11:23;;;;;;;4.63;3.60;;;25.70;64.60;;;;;;5036423;28;20476;-76
2023/07/30 07:13:50;;;;;;;7.90;4.00;;;25.80;63.20;;;;;;5031681;28;20486;-78
2023/07/30 07:16:17;;;;;;;5.27;4.27;;;26.10;63.20;;;;;;5029500;28;20520;-76
2023/07/30 07:18:44;;;;;;;4.73;3.20;;;26.50;62.90;;;;;;5034190;28;20485;-78
2023/07/30 07:21:12;;;;;;;4.40;3.20;;;26.70;60.70;;;;;;5035539;28;20643;-77
2023/07/30 07:23:39;;;;;;;5.20;4.03;;;26.80;60.00;;;;;;5035393;28;20438;-76
2023/07/30 07:26:06;;;;;;;3.43;2.90;;;27.20;60.10;;;;;;5035320;28;21004;-76
2023/07/30 07:28:33;;;;;;;4.90;3.00;;;27.50;58.00;;;;;;5035681;28;20446;-76
2023/07/30 07:31:00;;;;;;;6.13;3.83;;;27.60;57.60;;;;;;5034779;28;21038;-76
2023/07/30 07:33:27;;;;;;;6.20;3.27;;;27.90;56.10;;;;;;5024920;28;20524;-76
2023/07/30 07:36:07;;;;;;;6.13;3.67;;;28.20;55.70;;;;;;5033398;28;20494;-77
2023/07/30 07:38:34;;;;;;;3.53;3.33;;;28.20;55.00;;;;;;5034614;28;20487;-77
2023/07/30 07:41:01;;;;;;;6.27;3.90;;;28.00;55.00;;;;;;5034329;28;20517;-77
2023/07/30 07:43:28;;;;;;;3.93;3.50;;;28.50;55.20;;;;;;5035238;28;20445;-77
2023/07/30 07:45:55;;;;;;;4.00;3.47;;;28.70;54.30;;;;;;5034906;28;20446;-76
2023/07/30 07:48:22;;;;;;;4.77;3.30;;;29.30;53.20;;;;;;5035062;28;20472;-77
2023/07/30 07:50:49;;;;;;;3.93;3.57;;;29.60;52.40;;;;;;5033337;28;20673;-77
2023/07/30 07:53:17;;;;;;;7.70;3.27;;;29.70;52.30;;;;;;5035091;28;20528;-76
2023/07/30 07:55:43;;;;;;;7.53;3.20;;;29.70;51.80;;;;;;5032158;28;20457;-76
2023/07/30 07:58:10;;;;;;;5.30;3.50;;;29.80;52.30;;;;;;5018353;28;20509;-76
2023/07/30 08:00:38;;;;;;;6.20;3.40;;;29.90;51.70;;;;;;5034314;28;20462;-76
2023/07/30 08:03:05;;;;;;;5.63;3.00;;;29.80;52.30;;;;;;5017825;28;20446;-78
2023/07/30 08:05:33;;;;;;;4.77;3.60;;;30.70;50.00;;;;;;5046053;28;20441;-76
2023/07/30 08:08:00;;;;;;;6.40;3.50;;;30.60;49.90;;;;;;5031013;28;20481;-76
2023/07/30 08:10:27;;;;;;;4.50;3.37;;;30.50;50.10;;;;;;5034654;28;20469;-78
2023/07/30 08:12:54;;;;;;;5.57;3.90;;;30.60;50.40;;;;;;5035374;28;20765;-76
2023/07/30 08:15:21;;;;;;;3.13;2.93;;;30.60;48.60;;;;;;5009068;28;20513;-77
2023/07/30 08:17:48;;;;;;;3.07;2.80;;;30.20;49.70;;;;;;5036966;28;20489;-76
2023/07/30 08:20:15;;;;;;;4.27;2.83;;;30.30;50.30;;;;;;5036238;28;20509;-75
2023/07/30 08:22:43;;;;;;;9.43;3.37;;;30.70;49.60;;;;;;5035998;28;20525;-77
2023/07/30 08:25:10;;;;;;;4.10;3.30;;;31.50;47.50;;;;;;5035057;28;20446;-76
2023/07/30 08:27:37;;;;;;;4.03;3.53;;;31.30;46.80;;;;;;5011508;28;20442;-77
2023/07/30 08:30:05;;;;;;;4.93;3.70;;;31.70;48.00;;;;;;5033616;28;20434;-76
2023/07/30 08:32:33;;;;;;;11.50;4.80;;;32.20;46.40;;;;;;5033859;28;20534;-76
2023/07/30 08:35:00;;;;;;;4.30;3.23;;;32.20;45.60;;;;;;5034104;28;20469;-75
2023/07/30 08:37:27;;;;;;;3.20;2.50;;;31.90;45.20;;;;;;5033782;28;20462;-76
2023/07/30 08:39:55;;;;;;;3.57;2.90;;;31.90;44.30;;;;;;5034005;28;20662;-78
2023/07/30 08:42:22;;;;;;;3.30;2.80;;;32.30;43.70;;;;;;5034276;28;20517;-76
2023/07/30 08:44:49;;;;;;;8.87;3.53;;;32.40;44.40;;;;;;5028608;28;20458;-78
2023/07/30 08:47:16;;;;;;;2.93;2.37;;;33.00;42.50;;;;;;5035065;28;20469;-76
2023/07/30 08:49:43;;;;;;;5.10;3.30;;;32.90;42.40;;;;;;5029760;28;20529;-78
2023/07/30 08:52:11;;;;;;;3.60;2.87;;;32.10;43.00;;;;;;5032341;28;20461;-75
2023/07/30 08:54:40;;;;;;;5.43;3.27;;;32.00;44.00;;;;;;5031272;28;20755;-75
2023/07/30 08:57:07;;;;;;;3.13;2.83;;;32.30;43.20;;;;;;5033271;28;20448;-76
2023/07/30 08:59:41;;;;;;;3.77;2.47;;;31.90;43.40;;;;;;5035807;28;20505;-76
2023/07/30 09:02:17;;;;;;;3.20;3.00;;;31.70;44.40;;;;;;5027908;28;20457;-77
2023/07/30 09:04:47;;;;;;;3.10;2.80;;;31.60;44.10;;;;;;5034242;28;20437;-78
2023/07/30 09:07:16;;;;;;;5.13;2.70;;;31.50;45.40;;;;;;5032820;28;20438;-76
2023/07/30 09:09:43;;;;;;;3.50;3.20;;;31.80;43.10;;;;;;5036106;28;20516;-78
2023/07/30 09:12:15;;;;;;;5.93;2.53;;;31.40;43.30;;;;;;5033824;28;20697;-82
2023/07/30 09:14:45;;;;;;;5.00;3.30;;;31.40;46.30;;;;;;5037340;28;20451;-77
2023/07/30 09:17:19;;;;;;;3.53;3.23;;;31.30;45.50;;;;;;5015133;28;20433;-76
2023/07/30 09:19:50;;;;;;;4.90;2.90;;;31.60;43.50;;;;;;5036628;28;20517;-77
2023/07/30 09:22:38;;;;;;;3.73;2.77;;;31.40;44.80;;;;;;5025692;28;20465;-77
2023/07/30 09:25:06;;;;;;;2.90;2.70;;;31.90;43.10;;;;;;5036332;28;20441;-76
2023/07/30 09:27:34;;;;;;;3.43;3.13;;;31.50;44.60;;;;;;5032800;28;20450;-75
2023/07/30 09:30:05;;;;;;;3.93;2.70;;;30.80;44.50;;;;;;5037421;28;20445;-75
2023/07/30 09:32:34;;;;;;;4.10;2.77;;;30.60;46.20;;;;;;5037967;28;20438;-77
2023/07/30 09:35:09;;;;;;;3.00;2.80;;;30.40;45.60;;;;;;5037262;28;20536;-76
2023/07/30 09:37:41;;;;;;;2.87;2.67;;;30.40;45.90;;;;;;5037087;28;20517;-76
2023/07/30 09:40:10;;;;;;;4.40;3.30;;;29.90;47.60;;;;;;5036342;28;20517;-78
2023/07/30 09:42:39;;;;;;;3.17;2.97;;;29.60;48.20;;;;;;5030273;28;20512;-77
2023/07/30 09:45:08;;;;;;;2.90;2.70;;;29.80;47.90;;;;;;5034166;28;20438;-77
2023/07/30 09:47:38;;;;;;;3.70;3.20;;;29.80;48.60;;;;;;5036876;28;20517;-77
2023/07/30 09:50:06;;;;;;;3.40;3.10;;;29.90;47.70;;;;;;5036555;28;20496;-74
2023/07/30 09:52:33;;;;;;;3.40;3.10;;;29.40;48.00;;;;;;5036839;28;20470;-76
2023/07/30 09:55:02;;;;;;;3.27;3.07;;;29.20;48.60;;;;;;5038584;28;20452;-77
2023/07/30 09:57:28;;;;;;;3.07;2.87;;;29.50;49.90;;;;;;5037968;28;20446;-77
2023/07/30 09:59:55;;;;;;;6.10;3.30;;;29.60;47.60;;;;;;5036400;28;20485;-75
2023/07/30 10:02:24;;;;;;;3.23;3.03;;;29.80;47.30;;;;;;5012365;28;20855;-77
2023/07/30 10:04:56;;;;;;;3.73;2.90;;;30.00;47.50;;;;;;5033407;28;20520;-77
2023/07/30 10:07:25;;;;;;;3.73;2.83;;;30.00;47.70;;;;;;5026214;28;20894;-75
2023/07/30 10:09:56;;;;;;;4.23;3.10;;;29.90;46.20;;;;;;5032181;28;20867;-79
2023/07/30 10:12:28;;;;;;;4.23;2.80;;;29.70;46.90;;;;;;5034540;28;20925;-77
2023/07/30 10:14:55;;;;;;;3.23;3.03;;;29.40;50.10;;;;;;5036126;28;20472;-76
2023/07/30 10:17:22;;;;;;;7.17;3.40;;;29.70;49.20;;;;;;5036599;28;20508;-76
2023/07/30 10:19:50;;;;;;;3.20;2.90;;;29.50;47.80;;;;;;5018365;28;20556;-77
2023/07/30 10:22:24;;;;;;;3.07;2.87;;;29.90;47.10;;;;;;5018667;28;20460;-76
2023/07/30 10:25:03;;;;;;;6.33;3.00;;;30.30;46.70;;;;;;5030696;28;20466;-77
2023/07/30 10:27:38;;;;;;;4.40;2.83;;;30.50;45.50;;;;;;5029576;28;20800;-76
2023/07/30 10:30:14;;;;;;;3.37;3.07;;;30.80;46.70;;;;;;5019575;28;20473;-75
2023/07/30 10:32:59;;;;;;;3.00;2.80;;;30.90;44.80;;;;;;5034436;28;20458;-76
2023/07/30 10:35:45;;;;;;;2.87;2.67;;;31.00;45.20;;;;;;5053471;28;20453;-76
2023/07/30 10:38:27;;;;;;;3.00;2.80;;;30.40;44.50;;;;;;5052311;28;20457;-77
2023/07/30 10:41:08;;;;;;;3.43;2.80;;;30.40;47.20;;;;;;5053402;28;20428;-77
2023/07/30 10:43:45;;;;;;;2.90;2.70;;;30.70;46.20;;;;;;5030962;28;20453;-76
2023/07/30 10:46:16;;;;;;;2.80;2.60;;;30.30;45.30;;;;;;5035046;28;20452;-76
2023/07/30 10:48:45;;;;;;;3.07;2.87;;;29.90;46.40;;;;;;5033459;28;20520;-76
2023/07/30 10:51:18;;;;;;;3.60;2.60;;;30.00;46.60;;;;;;5034572;28;20517;-77
2023/07/30 10:53:49;;;;;;;2.77;2.57;;;30.00;46.70;;;;;;5017703;28;20502;-76
2023/07/30 10:56:21;;;;;;;5.83;2.70;;;30.10;46.30;;;;;;5032517;28;20445;-75
2023/07/30 10:58:53;;;;;;;4.03;3.03;;;30.20;45.10;;;;;;5034728;28;20492;-75
2023/07/30 11:01:20;;;;;;;3.13;2.80;;;29.90;45.80;;;;;;5035009;28;20505;-76
2023/07/30 11:03:53;;;;;;;4.10;3.70;;;29.50;46.70;;;;;;5034957;28;20438;-75
2023/07/30 11:06:26;;;;;;;4.77;3.53;;;29.20;47.30;;;;;;5035671;28;20465;-76
2023/07/30 11:08:54;;;;;;;3.30;3.00;;;29.20;48.10;;;;;;5017958;28;20794;-76
2023/07/30 11:11:23;;;;;;;5.90;2.90;;;28.80;48.30;;;;;;5027160;28;20477;-77
2023/07/30 11:13:50;;;;;;;3.77;2.70;;;28.80;48.30;;;;;;5017900;28;20433;-76
2023/07/30 11:16:17;;;;;;;2.70;2.47;;;29.00;48.10;;;;;;5035026;28;20505;-76
2023/07/30 11:18:46;;;;;;;3.43;3.13;;;28.80;48.00;;;;;;5035258;28;20489;-77
2023/07/30 11:21:16;;;;;;;3.40;3.17;;;28.90;48.50;;;;;;5032104;28;20452;-77
2023/07/30 11:23:44;;;;;;;3.63;3.33;;;28.80;48.70;;;;;;5034424;28;20676;-76
2023/07/30 11:26:19;;;;;;;2.93;2.73;;;29.10;48.00;;;;;;5035132;28;20529;-76
2023/07/30 11:28:47;;;;;;;3.33;3.10;;;29.00;48.50;;;;;;5017659;28;20452;-77
2023/07/30 11:31:18;;;;;;;3.27;2.97;;;28.90;47.50;;;;;;5034613;28;20445;-75
2023/07/30 11:33:47;;;;;;;3.20;2.90;;;29.20;48.10;;;;;;5035147;28;20518;-76
2023/07/30 11:36:21;;;;;;;2.60;2.40;;;30.00;48.10;;;;;;5034417;28;20458;-76
2023/07/30 11:38:49;;;;;;;2.33;2.13;;;30.30;47.30;;;;;;5035365;28;20540;-77
2023/07/30 11:41:17;;;;;;;4.00;2.87;;;29.80;46.80;;;;;;5034181;28;20450;-77
2023/07/30 11:43:45;;;;;;;4.83;3.47;;;29.40;47.10;;;;;;5034554;28;20462;-77
2023/07/30 11:46:20;;;;;;;3.30;3.10;;;29.00;48.50;;;;;;5033975;28;20438;-78
2023/07/30 11:48:48;;;;;;;2.87;2.67;;;28.60;50.40;;;;;;5034442;28;21184;-75
2023/07/30 11:51:26;;;;;;;3.90;3.50;;;27.90;52.30;;;;;;5034241;28;20442;-76
2023/07/30 11:53:54;;;;;;;3.23;2.93;;;27.20;54.30;;;;;;5034327;28;20468;-77
2023/07/30 11:56:27;;;;;;;2.53;2.33;;;26.90;54.80;;;;;;5034022;28;20445;-78
2023/07/30 11:58:56;;;;;;;3.50;3.30;;;26.60;55.80;;;;;;5016928;28;20493;-77
2023/07/30 12:01:31;;;;;;;2.87;2.63;;;26.40;56.60;;;;;;5033586;28;20444;-78
2023/07/30 12:04:00;;;;;;;3.20;3.00;;;26.40;57.10;;;;;;5013270;28;20438;-77
2023/07/30 12:06:53;;;;;;;2.87;2.67;;;26.00;57.40;;;;;;5032105;28;20780;-78
2023/07/30 12:09:23;;;;;;;3.20;3.00;;;25.70;57.40;;;;;;5032521;28;20506;-77
2023/07/30 12:11:57;;;;;;;3.57;3.27;;;25.50;59.30;;;;;;5033979;28;20428;-80
2023/07/30 12:14:44;;;;;;;3.17;2.97;;;25.50;58.80;;;;;;5026504;28;20434;-79
2023/07/30 12:17:11;;;;;;;3.87;3.57;;;25.80;59.40;;;;;;5032097;28;20521;-76
2023/07/30 12:19:38;;;;;;;5.17;3.00;;;25.80;59.30;;;;;;5031499;28;20723;-77
2023/07/30 12:22:05;;;;;;;3.47;3.17;;;25.90;58.90;;;;;;5035385;28;20508;-76
2023/07/30 12:24:33;;;;;;;3.70;3.30;;;26.00;58.80;;;;;;5030677;28;20533;-76
2023/07/30 12:27:00;;;;;;;5.03;3.27;;;26.00;58.90;;;;;;5034522;28;20452;-78
2023/07/30 12:29:27;;;;;;;3.53;3.23;;;25.90;59.60;;;;;;5033611;28;20450;-77
2023/07/30 12:31:55;;;;;;;3.97;3.67;;;25.90;59.80;;;;;;5033781;28;20444;-77
2023/07/30 12:34:24;;;;;;;3.10;2.90;;;26.10;60.30;;;;;;5033710;28;20438;-76
2023/07/30 12:36:51;;;;;;;3.17;2.97;;;26.30;58.90;;;;;;5032122;28;20453;-78
2023/07/30 12:39:18;;;;;;;3.23;2.60;;;26.40;58.90;;;;;;5036664;28;20469;-76
2023/07/30 12:41:45;;;;;;;3.10;2.47;;;26.30;58.80;;;;;;5010457;28;20469;-77
2023/07/30 12:44:12;;;;;;;3.00;2.70;;;26.40;59.30;;;;;;5028702;28;20451;-75
2023/07/30 12:46:41;;;;;;;4.83;3.47;;;26.40;58.40;;;;;;5035036;28;20813;-79
2023/07/30 12:49:10;;;;;;;3.70;3.10;;;26.40;58.50;;;;;;5037884;28;20453;-76
2023/07/30 12:51:37;;;;;;;3.30;2.53;;;26.70;58.20;;;;;;5037566;28;20453;-77